Aérodrome :
LOGIN :

S'inscrire | Disclaimer

   EN    FR    IT 

 










Légende :    VFR   VFR Marginal   IFR   IFR Intensif   IFR Très Intensif
Visi : 
Plafond : 
>= 8 km
>= 3000ft
5 à 8 km
1000 à 3000 ft
1500m à 5 km
500 à 1000 ft
800 à 1500m
200 à 500 ft
< 800m
< 200 ft
Symboles :   Orages  Brouillard  Fortes neiges  Fortes précipitations  Vent > 20 kt
SIGMETs :   Divers  Orages  Givrage  Turbulence  Onde Orograph.  Cendres Volcan.






- Altitude de l'aérodrome : 17 ft
- Code IATA : GRQ


EHGG - Groningen Eelde

DERNIER METAR :
  • 060625Z AUTO 22019KT 190V250 2100 -RA BKN004 OVC005 06/05 Q1006 BECMG 4000 BKN006 TEMPO 2500

METARs EXPIRÉS :
  • 060555Z AUTO 22019KT 2300 BR OVC005 06/05 Q1006 BECMG 4000 TEMPO 2500
  • 060525Z AUTO 22019KT 180V240 2600 BR OVC005 06/05 Q1006 BECMG 4000 TEMPO 2500
  • 060455Z AUTO 22019KT 4200 BR OVC005 06/05 Q1007
  • 060425Z AUTO 22018KT 190V250 2800 DZ BKN005 BKN007 FEW015CB 06/05 Q1007
  • 060355Z AUTO 22019KT 180V250 3900 -RA BKN006 BKN007 FEW015CB 06/05 Q1007 RERA REDZ

TAF TAF EHGG
Valide du 06 à 06h jusqu'au 07 à 12h UTC


060457Z 0606/0712 21017G27KT 4000 BR -RADZ BKN006
TEMPO 0606/0621 2500 DZRA BR BKN004
TEMPO 0621/0701 4000 SHRA SCT014 SCT020CB
BECMG 0622/0701 27010KT 9999 NSW SCT020
PROB30
TEMPO 0701/0712 7000 -SHRA FEW015TCU



MET'MAP, la Météo Aéronautique d'un coup d'oeil ! - Copyright ORBIFLY Décembre 2007 - Disclaimer

ORBIFLY MET'MAP TEAM :

Programmation & Développement : Alexandra Zaïnal
Sur une idée originale de : Baudouin d'Aumeries
Assistance à la programmation : Marc-Olivier Méhu
Soutien technique & logistique : Manuel Goepfert

Contact : metmap@orbifly.com




SOURCES & CREDITS :

   NOAA